Time;durP1;ratioP1;P1;durP2;ratioP2;P2;SDS_P1;SDS_P2;PMS_P1;PMS_P2;Temp;Humidity;BMP_temperature;BMP_pressure;BME280_temperature;BME280_humidity;BME280_pressure;Samples;Min_cycle;Max_cycle;Signal;HPM_P1;HPM_P2
2022/07/10 00:02:06;;;;;;;2.70;2.17;;;21.20;81.80;;;21.53;53.76;99306.59;4973161;28;124082;-90
2022/07/10 00:04:32;;;;;;;3.00;2.70;;;21.10;82.00;;;21.54;53.92;99308.22;4980319;28;120291;-90
2022/07/10 00:07:01;;;;;;;2.70;2.33;;;21.10;82.10;;;21.55;53.77;99307.03;4980536;28;119919;-90
2022/07/10 00:09:28;;;;;;;3.27;2.50;;;21.10;82.10;;;21.55;53.80;99307.03;4975877;28;124270;-89
2022/07/10 00:11:54;;;;;;;3.10;2.40;;;21.10;82.20;;;21.55;53.63;99303.44;4983562;28;123863;-90
2022/07/10 00:14:21;;;;;;;2.83;2.63;;;21.10;82.30;;;21.52;53.46;99301.34;4977845;28;118702;-90
2022/07/10 00:16:47;;;;;;;3.53;2.70;;;21.10;82.30;;;21.51;53.70;99303.34;4984529;28;119027;-89
2022/07/10 00:19:14;;;;;;;3.13;2.67;;;21.10;82.30;;;21.49;53.27;99294.47;4978990;28;124127;-91
2022/07/10 00:21:41;;;;;;;3.27;2.70;;;21.00;82.30;;;21.50;53.51;99300.91;4976105;28;123147;-90
2022/07/10 00:24:10;;;;;;;3.13;2.23;;;21.00;82.40;;;21.50;53.48;99293.28;4968125;28;119325;-92
2022/07/10 00:26:36;;;;;;;3.90;2.43;;;21.00;82.50;;;21.52;53.58;99290.94;4972986;28;119063;-91
2022/07/10 00:29:03;;;;;;;4.03;2.43;;;21.00;82.50;;;21.51;53.35;99297.72;4969641;28;123718;-91
2022/07/10 00:31:29;;;;;;;3.83;2.53;;;21.00;82.60;;;21.49;53.04;99288.84;4966025;28;123736;-91
2022/07/10 00:33:56;;;;;;;7.20;2.83;;;21.00;82.40;;;21.46;53.17;99283.97;4969999;28;119251;-90
2022/07/10 00:36:23;;;;;;;2.37;2.13;;;21.00;82.40;;;21.47;53.24;99291.22;4968301;28;118460;-90
2022/07/10 00:38:49;;;;;;;2.60;2.40;;;21.00;82.50;;;21.48;53.00;99292.84;4965950;28;123072;-91
2022/07/10 00:41:16;;;;;;;3.40;2.50;;;21.00;82.50;;;21.48;52.95;99287.22;4967940;28;124310;-91
2022/07/10 00:43:58;;;;;;;2.93;2.63;;;21.00;82.40;;;21.48;53.33;99287.22;4971315;28;118397;-91
2022/07/10 00:46:26;;;;;;;2.60;2.33;;;21.00;83.20;;;21.46;53.01;99292.41;4968901;28;119028;-89
2022/07/10 00:48:53;;;;;;;3.97;2.80;;;21.00;82.40;;;21.45;52.88;99287.97;4982974;28;124330;-91
2022/07/10 00:51:24;;;;;;;3.27;2.33;;;21.00;82.40;;;21.42;53.14;99287.91;4986958;28;124169;-90
2022/07/10 00:53:52;;;;;;;3.60;2.80;;;21.00;82.50;;;21.43;53.41;99301.59;4974799;28;119286;-91
2022/07/10 00:56:26;;;;;;;2.70;2.40;;;21.00;82.60;;;21.40;53.00;99291.09;4966526;28;119155;-90
2022/07/10 00:58:54;;;;;;;2.97;2.40;;;20.90;82.50;;;21.38;53.07;99287.84;4983008;28;123150;-91
2022/07/10 01:01:22;;;;;;;3.17;2.87;;;20.90;82.50;;;21.42;52.90;99282.28;4972047;28;124262;-91
2022/07/10 01:03:49;;;;;;;3.97;2.43;;;20.90;82.50;;;21.39;52.70;99281.03;4987473;28;119323;-90
2022/07/10 01:06:16;;;;;;;3.57;2.20;;;20.90;82.50;;;21.38;52.65;99282.22;4989556;28;119001;-91
2022/07/10 01:08:44;;;;;;;3.97;2.30;;;20.90;82.50;;;21.37;53.08;99281.41;4982493;28;124068;-93
2022/07/10 01:11:12;;;;;;;4.00;2.53;;;20.90;82.50;;;21.38;52.71;99273.78;4969820;28;123437;-92
2022/07/10 01:13:39;;;;;;;3.10;2.30;;;21.40;83.10;;;21.39;53.10;99267.00;4986351;28;120539;-89
2022/07/10 01:16:06;;;;;;;2.63;2.33;;;20.90;82.60;;;21.39;52.86;99278.22;4985587;28;119214;-91
2022/07/10 01:18:33;;;;;;;3.43;2.83;;;20.90;82.50;;;21.36;52.95;99276.13;4985086;28;124251;-91
2022/07/10 01:20:59;;;;;;;5.53;3.13;;;20.90;82.50;;;21.33;52.97;99274.03;4988012;28;123882;-92
2022/07/10 01:23:26;;;;;;;3.10;2.70;;;20.90;82.40;;;21.29;52.93;99278.81;4978193;28;119182;-89
2022/07/10 01:25:53;;;;;;;3.00;2.70;;;20.90;82.30;;;21.26;52.41;99280.38;4974301;28;118967;-90
2022/07/10 01:28:21;;;;;;;2.50;2.30;;;20.80;82.20;;;21.22;52.67;99273.03;4995851;28;123643;-89
2022/07/10 01:30:49;;;;;;;2.47;2.27;;;20.80;82.20;;;21.20;52.56;99276.25;4998395;28;123943;-89
2022/07/10 01:33:15;;;;;;;3.10;2.80;;;20.80;82.10;;;21.18;52.62;99279.41;4978609;28;119317;-93
2022/07/10 01:35:43;;;;;;;5.00;3.23;;;20.80;82.10;;;21.14;52.78;99277.72;4980726;28;118790;-93
2022/07/10 01:38:09;;;;;;;5.17;3.20;;;20.70;82.00;;;21.09;52.70;99278.84;4987919;28;123893;-92
2022/07/10 01:40:36;;;;;;;4.10;2.90;;;20.70;82.10;;;21.05;52.72;99269.50;4983251;28;123727;-93
2022/07/10 01:43:02;;;;;;;3.40;2.90;;;20.60;82.10;;;21.01;52.77;99271.47;4985564;28;120338;-92
2022/07/10 01:45:29;;;;;;;3.77;2.50;;;20.60;82.20;;;20.96;52.95;99266.13;4979128;28;119990;-91
2022/07/10 01:47:56;;;;;;;3.23;2.93;;;20.60;82.40;;;20.91;52.96;99258.81;4980714;28;123987;-92
2022/07/10 01:50:23;;;;;;;3.00;2.70;;;20.50;82.40;;;20.89;53.09;99263.19;4977789;28;123814;-91
2022/07/10 01:52:50;;;;;;;6.17;3.23;;;20.50;82.60;;;20.85;53.30;99271.53;4982443;28;118609;-93
2022/07/10 01:55:17;;;;;;;5.03;2.90;;;20.50;82.70;;;20.83;53.62;99273.91;4983439;28;120224;-93
2022/07/10 01:57:43;;;;;;;3.17;2.87;;;20.40;82.80;;;20.80;53.22;99273.84;4983754;28;124577;-92
2022/07/10 02:00:10;;;;;;;4.40;2.83;;;20.40;82.80;;;20.75;53.41;99274.94;4984699;28;124084;-92
2022/07/10 02:02:37;;;;;;;4.50;3.10;;;20.40;83.10;;;20.70;53.42;99264.81;4974314;28;118694;-93
2022/07/10 02:05:04;;;;;;;3.37;3.00;;;20.30;83.10;;;20.67;53.51;99281.59;4987595;28;119491;-93
2022/07/10 02:07:34;;;;;;;3.47;2.80;;;20.30;83.40;;;20.63;54.02;99277.88;4977695;28;124454;-91
2022/07/10 02:10:00;;;;;;;3.20;2.83;;;20.30;83.50;;;20.59;53.86;99274.19;4984375;28;125756;-91
2022/07/10 02:12:27;;;;;;;6.10;4.30;;;20.20;83.70;;;20.52;54.31;99283.22;4973016;28;119490;-92
2022/07/10 02:14:56;;;;;;;4.37;3.33;;;20.20;84.10;;;20.48;54.27;99285.16;4979449;28;118151;-92
2022/07/10 02:17:23;;;;;;;4.10;3.40;;;20.10;84.20;;;20.44;54.76;99279.44;4994541;28;123237;-91
2022/07/10 02:19:49;;;;;;;4.13;3.43;;;20.10;84.50;;;20.43;54.63;99282.63;4981322;28;123868;-93
2022/07/10 02:22:16;;;;;;;5.53;3.70;;;20.00;84.60;;;20.42;54.54;99275.41;4988100;28;118610;-94
2022/07/10 02:24:42;;;;;;;5.57;4.97;;;20.00;85.00;;;20.39;55.43;99290.13;4979956;28;119322;-92
2022/07/10 02:27:09;;;;;;;5.10;4.13;;;20.00;85.60;;;20.33;55.32;99283.19;4984267;28;124339;-92
2022/07/10 02:29:37;;;;;;;7.37;6.27;;;19.90;85.80;;;20.29;55.88;99283.94;4983372;28;123593;-93
2022/07/10 02:32:04;;;;;;;5.00;4.50;;;19.90;86.50;;;20.22;55.77;99280.94;4974385;28;120348;-92
2022/07/10 02:34:31;;;;;;;5.40;4.43;;;19.80;86.50;;;20.17;56.23;99291.66;4996905;28;118922;-93
2022/07/10 02:36:57;;;;;;;5.63;4.90;;;19.80;86.80;;;20.12;56.37;99286.31;4978379;28;123703;-90
2022/07/10 02:39:24;;;;;;;4.50;3.87;;;19.70;87.10;;;20.10;56.14;99297.91;4980218;28;123686;-91
2022/07/10 02:41:50;;;;;;;7.13;5.10;;;19.70;87.30;;;20.08;56.63;99300.25;4979392;28;119271;-94
2022/07/10 02:44:16;;;;;;;7.70;5.77;;;19.70;87.60;;;20.07;56.60;99307.88;4985477;28;119493;-92
2022/07/10 02:46:43;;;;;;;6.97;6.27;;;19.70;87.90;;;20.05;56.92;99303.81;4986334;28;124307;-92
2022/07/10 02:49:09;;;;;;;7.50;5.13;;;19.60;88.00;;;20.04;56.90;99310.56;4975818;28;123000;-92
2022/07/10 02:51:36;;;;;;;6.87;6.17;;;19.60;88.30;;;20.04;56.96;99311.41;4980520;28;119618;-92
2022/07/10 02:54:02;;;;;;;7.07;5.60;;;19.70;88.60;;;20.07;57.30;99305.06;4977090;28;118997;-92
2022/07/10 02:56:29;;;;;;;10.40;6.30;;;19.60;88.80;;;20.08;57.15;99309.47;4983222;28;124023;-92
2022/07/10 02:58:55;;;;;;;7.27;5.77;;;19.60;89.00;;;20.08;57.43;99303.88;4980918;28;123369;-92
2022/07/10 03:01:22;;;;;;;10.63;6.80;;;19.60;89.10;;;20.05;57.24;99309.41;4975930;28;119437;-94
2022/07/10 03:03:48;;;;;;;5.77;5.17;;;19.60;89.40;;;20.04;57.53;99310.56;4975217;28;119080;-92
2022/07/10 03:06:15;;;;;;;7.80;5.70;;;19.60;90.00;;;20.05;57.51;99306.59;4983836;28;124466;-92
2022/07/10 03:08:41;;;;;;;9.20;6.30;;;19.60;89.60;;;20.03;57.52;99317.38;5005229;28;123163;-92
2022/07/10 03:11:08;;;;;;;8.53;6.20;;;19.60;89.60;;;20.00;57.63;99320.91;4978386;28;119294;-91
2022/07/10 03:13:34;;;;;;;6.40;5.77;;;19.60;89.80;;;19.96;57.81;99312.41;4981535;28;118179;-94
2022/07/10 03:16:01;;;;;;;6.87;5.63;;;19.50;89.90;;;19.95;57.64;99304.34;4986255;28;124478;-92
2022/07/10 03:18:28;;;;;;;6.93;5.60;;;19.50;90.00;;;19.95;57.88;99309.94;4987272;28;123676;-92
2022/07/10 03:20:54;;;;;;;10.83;6.20;;;19.50;90.00;;;19.93;57.84;99310.31;4985894;28;120292;-92
2022/07/10 03:23:21;;;;;;;6.83;5.60;;;19.50;90.10;;;19.94;57.90;99305.53;4988155;28;120233;-92
2022/07/10 03:25:48;;;;;;;7.23;5.13;;;19.50;90.20;;;19.93;57.96;99312.31;4980922;28;123205;-94
2022/07/10 03:28:14;;;;;;;6.23;5.20;;;19.50;90.20;;;19.91;57.88;99312.69;4974886;28;122873;-91
2022/07/10 03:30:41;;;;;;;7.80;6.10;;;19.50;90.30;;;19.92;58.13;99319.09;4983998;28;119991;-93
2022/07/10 03:33:07;;;;;;;8.67;5.40;;;19.50;90.30;;;19.93;58.06;99320.72;4989201;28;118183;-92
2022/07/10 03:35:34;;;;;;;5.70;4.87;;;19.50;90.40;;;19.92;57.89;99316.28;4981004;28;123662;-93
2022/07/10 03:38:00;;;;;;;6.03;4.43;;;19.50;90.40;;;19.92;58.13;99317.09;4989750;28;123815;-92
2022/07/10 03:40:28;;;;;;;6.23;5.23;;;19.50;90.40;;;19.95;57.68;99316.38;4986319;28;118950;-93
2022/07/10 03:42:54;;;;;;;6.20;5.60;;;19.50;90.50;;;19.95;57.96;99313.56;4970637;28;116928;-91
2022/07/10 03:45:21;;;;;;;8.30;5.23;;;19.50;90.50;;;19.93;57.84;99312.31;4974529;28;124018;-92
2022/07/10 03:47:50;;;;;;;7.57;6.20;;;19.40;90.40;;;19.90;58.22;99324.25;4985556;28;123770;-93
2022/07/10 03:50:16;;;;;;;10.00;5.90;;;19.40;90.50;;;19.84;58.03;99316.09;4984894;28;119377;-92
2022/07/10 03:52:44;;;;;;;6.43;5.67;;;19.40;90.50;;;19.81;58.23;99316.03;4983124;28;119027;-92
2022/07/10 03:55:10;;;;;;;9.10;5.60;;;19.40;90.60;;;19.78;58.12;99306.34;4975531;28;123884;-92
2022/07/10 03:57:56;;;;;;;7.93;6.10;;;19.30;90.70;;;19.75;58.47;99306.25;4967632;28;121990;-92
2022/07/10 04:00:25;;;;;;;7.37;5.50;;;19.30;90.80;;;19.71;58.52;99308.94;4983717;28;118427;-92
2022/07/10 04:03:05;;;;;;;7.17;5.87;;;19.30;90.90;;;19.69;58.58;99311.31;4981387;28;118629;-94
2022/07/10 04:05:35;;;;;;;7.70;5.53;;;19.30;91.00;;;19.66;58.87;99306.41;4982076;28;124005;-92
2022/07/10 04:08:03;;;;;;;7.70;6.23;;;19.20;91.00;;;19.64;59.00;99319.97;4973504;28;122959;-93
2022/07/10 04:10:31;;;;;;;8.23;6.30;;;19.20;91.10;;;19.60;58.93;99305.03;5022047;28;119186;-92
2022/07/10 04:12:58;;;;;;;8.87;5.77;;;19.20;91.20;;;19.57;59.27;99308.56;5001389;28;120288;-90
2022/07/10 04:15:25;;;;;;;8.30;6.20;;;19.20;91.20;;;19.54;59.36;99310.09;4998658;28;126144;-93
2022/07/10 04:17:52;;;;;;;8.13;6.20;;;19.10;91.30;;;19.52;59.35;99311.63;4976684;28;123315;-92
2022/07/10 04:20:20;;;;;;;12.97;6.47;;;19.10;91.40;;;19.49;59.67;99313.16;4987574;28;118611;-93
2022/07/10 04:22:47;;;;;;;8.70;6.10;;;19.10;91.50;;;19.47;59.62;99309.91;4979708;28;118941;-93
2022/07/10 04:25:13;;;;;;;7.87;4.87;;;19.00;91.60;;;19.46;59.64;99311.09;4985892;28;124410;-92
2022/07/10 04:27:40;;;;;;;6.30;5.10;;;19.00;91.60;;;19.49;59.48;99313.16;4978702;28;123995;-93
2022/07/10 04:30:07;;;;;;;7.07;4.90;;;19.00;91.60;;;19.53;59.61;99313.25;4976945;28;119391;-92
2022/07/10 04:32:34;;;;;;;4.97;4.40;;;19.00;91.60;;;19.53;59.42;99316.03;4972341;28;119004;-92
2022/07/10 04:35:01;;;;;;;8.00;5.40;;;19.00;91.60;;;19.51;59.45;99322.03;4996867;28;124073;-93
2022/07/10 04:37:30;;;;;;;5.57;5.03;;;19.00;91.60;;;19.52;59.43;99311.63;4985910;28;123852;-92
2022/07/10 04:39:57;;;;;;;5.60;4.97;;;19.10;91.70;;;19.49;59.39;99315.97;4982349;28;119585;-92
2022/07/10 04:42:23;;;;;;;6.00;4.33;;;19.00;91.60;;;19.50;59.36;99308.38;4985923;28;119422;-92
2022/07/10 04:44:50;;;;;;;15.47;5.80;;;19.00;91.60;;;19.48;59.34;99319.13;4988253;28;124412;-92
2022/07/10 04:47:17;;;;;;;5.73;4.93;;;19.00;91.70;;;19.45;59.37;99312.25;4976952;28;123939;-93
2022/07/10 04:49:43;;;;;;;7.00;5.43;;;19.00;91.70;;;19.43;59.43;99315.41;4983215;28;119030;-93
2022/07/10 04:52:09;;;;;;;5.30;4.80;;;19.00;91.70;;;19.46;59.53;99321.47;4995668;28;118337;-93
2022/07/10 04:54:36;;;;;;;7.53;4.80;;;19.00;91.80;;;19.50;59.61;99320.38;4985586;28;123727;-92
2022/07/10 04:57:03;;;;;;;5.50;4.97;;;19.00;91.80;;;19.54;59.25;99317.69;4988065;28;123193;-93
2022/07/10 04:59:29;;;;;;;5.00;4.50;;;19.10;91.90;;;19.56;59.20;99327.38;4981305;28;120263;-93
2022/07/10 05:01:56;;;;;;;7.70;5.40;;;19.00;91.80;;;19.57;59.29;99331.00;4985340;28;120110;-92
2022/07/10 05:04:22;;;;;;;5.30;4.00;;;19.10;91.90;;;19.55;58.97;99322.94;4985282;28;124832;-93
2022/07/10 05:06:49;;;;;;;6.27;4.27;;;19.00;91.80;;;19.53;59.38;99330.06;4990562;28;122528;-92
2022/07/10 05:09:15;;;;;;;10.43;4.47;;;19.00;91.80;;;19.51;59.09;99332.44;4981812;28;121125;-93
2022/07/10 05:11:42;;;;;;;5.40;3.83;;;19.00;91.70;;;19.48;59.15;99336.78;4988620;28;119646;-92
2022/07/10 05:14:08;;;;;;;4.50;4.00;;;19.00;91.70;;;19.48;58.99;99338.72;4978750;28;124093;-94
2022/07/10 05:16:35;;;;;;;5.70;3.90;;;19.00;91.70;;;19.49;58.76;99334.78;4975369;28;123914;-92
2022/07/10 05:19:01;;;;;;;5.97;3.93;;;19.00;91.70;;;19.49;58.68;99346.78;4967999;28;118608;-90
2022/07/10 05:21:28;;;;;;;3.90;3.50;;;19.00;91.60;;;19.47;58.69;99340.72;4969545;28;119014;-90
2022/07/10 05:23:54;;;;;;;4.23;3.50;;;19.00;91.60;;;19.46;58.53;99341.91;4973858;28;123323;-94
2022/07/10 05:26:21;;;;;;;5.37;3.37;;;19.00;91.60;;;19.48;58.53;99333.13;4968735;28;123967;-91
2022/07/10 05:28:47;;;;;;;5.80;3.40;;;19.00;91.50;;;19.49;58.62;99341.19;4972634;28;118480;-91
2022/07/10 05:31:14;;;;;;;4.90;3.70;;;19.00;91.50;;;19.52;58.19;99336.84;4972322;28;118980;-91
2022/07/10 05:33:40;;;;;;;4.20;3.40;;;19.00;91.40;;;19.54;57.91;99345.72;4968274;28;124080;-92
2022/07/10 05:36:08;;;;;;;4.63;3.13;;;19.00;91.30;;;19.58;57.90;99355.03;4979907;28;124443;-92
2022/07/10 05:38:35;;;;;;;4.00;2.73;;;19.00;91.20;;;19.65;57.44;99341.22;4974942;28;120883;-84
2022/07/10 05:41:01;;;;;;;6.13;3.23;;;19.10;91.20;;;19.72;57.09;99338.63;4976182;28;118973;-92
2022/07/10 05:43:28;;;;;;;3.90;3.17;;;19.10;90.90;;;19.78;56.72;99347.59;4983185;28;125046;-93
2022/07/10 05:45:54;;;;;;;3.30;2.30;;;19.20;90.80;;;19.79;56.37;99341.59;4977296;28;123202;-92
2022/07/10 05:48:21;;;;;;;3.83;2.30;;;19.20;90.60;;;19.81;56.29;99344.88;4963572;28;119477;-92
2022/07/10 05:50:48;;;;;;;3.13;2.20;;;19.20;90.40;;;19.89;55.88;99353.47;4976588;28;117929;-91
2022/07/10 05:53:14;;;;;;;5.03;2.60;;;19.30;90.40;;;19.95;55.37;99357.63;4972789;28;124041;-92
2022/07/10 05:55:41;;;;;;;3.00;2.30;;;19.30;90.00;;;19.99;55.19;99364.97;4970864;28;123943;-93
2022/07/10 05:58:07;;;;;;;4.20;2.60;;;19.30;89.70;;;20.02;54.79;99369.03;4975495;28;118629;-94
2022/07/10 06:00:34;;;;;;;5.83;3.47;;;19.40;89.30;;;19.99;54.35;99381.00;4977844;28;119050;-91
2022/07/10 06:03:00;;;;;;;8.13;2.93;;;19.40;88.40;;;19.90;53.98;99378.34;4979085;28;124066;-93
2022/07/10 06:05:27;;;;;;;5.67;2.23;;;19.40;88.40;;;19.79;53.70;99366.03;4978261;28;123703;-94
2022/07/10 06:07:54;;;;;;;3.30;2.43;;;19.30;87.30;;;19.75;53.80;99381.97;4972866;28;119372;-93
2022/07/10 06:10:20;;;;;;;2.63;2.10;;;19.20;87.30;;;19.70;53.64;99366.22;4979392;28;118282;-93
2022/07/10 06:12:47;;;;;;;2.77;2.50;;;19.20;87.10;;;19.64;53.09;99367.63;4977819;28;123975;-91
2022/07/10 06:15:13;;;;;;;3.03;2.10;;;19.10;86.30;;;19.58;53.49;99369.03;4976080;28;123050;-93
2022/07/10 06:17:39;;;;;;;2.60;1.93;;;19.10;86.70;;;19.60;53.62;99381.53;4970769;28;118460;-93
2022/07/10 06:20:07;;;;;;;2.93;2.20;;;19.10;87.00;;;19.65;53.46;99383.25;4970235;28;119218;-94
2022/07/10 06:22:33;;;;;;;4.43;2.07;;;19.10;87.70;;;19.65;53.71;99367.25;4972991;28;123542;-92
2022/07/10 06:25:05;;;;;;;4.20;2.10;;;19.10;87.10;;;19.70;53.66;99369.03;4985885;28;96782;-93
2022/07/10 06:27:32;;;;;;;4.20;2.30;;;19.10;87.00;;;19.70;53.45;99371.00;4981538;28;118481;-92
2022/07/10 06:30:00;;;;;;;3.00;2.20;;;19.10;86.80;;;19.68;53.42;99376.97;4974598;28;118167;-91
2022/07/10 06:32:27;;;;;;;4.33;1.83;;;19.10;86.60;;;19.68;53.25;99382.56;4980589;28;124092;-93
2022/07/10 06:34:55;;;;;;;4.60;2.00;;;19.10;86.40;;;19.66;53.16;99379.31;4985034;28;124018;-91
2022/07/10 06:37:21;;;;;;;5.83;2.63;;;19.10;86.10;;;19.68;53.08;99376.16;4986862;28;120166;-94
2022/07/10 06:39:48;;;;;;;3.47;1.93;;;19.20;85.80;;;19.68;52.79;99391.00;4988773;28;119071;-92
2022/07/10 06:42:15;;;;;;;4.47;2.50;;;19.20;85.70;;;19.67;52.43;99397.78;4985140;28;124603;-94
2022/07/10 06:44:45;;;;;;;5.93;2.17;;;19.20;85.00;;;19.62;52.25;99392.41;4986780;28;124553;-90
2022/07/10 06:50:08;;;;;;;3.50;2.00;;;19.10;84.60;;;19.56;51.98;99391.84;4978039;28;120637;-94
2022/07/10 06:52:35;;;;;;;2.13;1.80;;;19.00;84.20;;;19.58;51.80;99395.09;4980136;28;124019;-93
2022/07/10 06:55:04;;;;;;;6.40;2.30;;;19.00;84.30;;;19.68;51.85;99401.38;4982966;28;123112;-92
2022/07/10 06:57:31;;;;;;;3.50;2.33;;;19.10;84.50;;;19.82;51.74;99394.16;4985164;28;118857;-92
2022/07/10 06:59:57;;;;;;;2.33;1.80;;;19.20;84.30;;;19.87;50.92;99387.47;4973831;28;119352;-93
2022/07/10 07:02:24;;;;;;;2.10;1.80;;;19.20;83.80;;;19.91;51.11;99390.38;4974084;28;123866;-93
2022/07/10 07:04:50;;;;;;;4.03;1.57;;;19.30;83.70;;;19.97;50.86;99386.16;4986213;28;124164;-94
2022/07/10 07:07:17;;;;;;;4.90;1.77;;;19.40;83.50;;;20.02;50.90;99388.69;4969897;28;119937;-94
2022/07/10 07:09:44;;;;;;;3.20;1.90;;;19.40;83.30;;;20.06;50.39;99393.19;4982078;28;117803;-93
2022/07/10 07:12:11;;;;;;;3.23;1.80;;;19.50;83.00;;;20.08;50.27;99390.84;4968040;28;124647;-94
2022/07/10 07:14:38;;;;;;;3.33;1.80;;;19.40;82.60;;;20.07;50.16;99396.84;4971381;28;123676;-92
2022/07/10 07:17:09;;;;;;;4.53;1.90;;;19.40;82.50;;;20.06;50.55;99403.59;4978325;28;119283;-93
2022/07/10 07:25:08;;;;;;;6.10;1.73;;;19.40;82.20;;;19.85;50.62;99401.88;4973530;28;125097;-94
2022/07/10 07:27:37;;;;;;;3.23;2.30;;;19.30;82.30;;;19.81;50.86;99414.97;4976540;28;120113;-92
2022/07/10 07:30:06;;;;;;;3.57;1.60;;;19.30;82.50;;;19.79;50.82;99414.50;4985143;28;119917;-94
2022/07/10 07:32:33;;;;;;;3.70;2.10;;;19.30;82.50;;;19.75;50.32;99416.41;4965442;28;123239;-94
2022/07/10 07:35:00;;;;;;;4.57;1.70;;;19.30;82.10;;;19.73;50.25;99424.38;4971704;28;123722;-93
2022/07/10 07:37:41;;;;;;;3.23;1.50;;;19.20;81.80;;;19.69;50.07;99423.44;4973523;28;119217;-92
2022/07/10 07:40:11;;;;;;;3.40;1.97;;;19.20;81.50;;;19.68;49.92;99421.81;4971815;28;119309;-95
2022/07/10 07:42:39;;;;;;;3.33;1.63;;;19.20;81.50;;;19.72;49.87;99428.34;4975275;28;124762;-95
2022/07/10 07:45:06;;;;;;;3.57;2.10;;;19.20;81.40;;;19.74;49.95;99420.38;4985137;28;121848;-93
2022/07/10 07:47:51;;;;;;;1.83;1.50;;;19.20;81.20;;;19.73;49.45;99426.38;4979263;28;119124;-90
2022/07/10 07:50:21;;;;;;;3.00;1.90;;;19.30;80.50;;;19.70;49.29;99411.06;4978836;28;118427;-94
2022/07/10 07:52:48;;;;;;;2.10;1.50;;;19.20;80.40;;;19.72;49.35;99419.94;4967359;28;123202;-94
2022/07/10 07:55:17;;;;;;;3.40;1.60;;;20.40;81.50;;;19.76;49.02;99414.44;4986074;28;124105;-93
2022/07/10 07:57:45;;;;;;;3.20;1.50;;;19.20;79.80;;;19.79;49.04;99422.94;4969598;28;119177;-94
2022/07/10 08:00:13;;;;;;;3.77;1.67;;;19.20;79.80;;;19.82;48.97;99422.19;4973517;28;119042;-94
2022/07/10 08:02:40;;;;;;;3.43;2.10;;;19.30;79.80;;;19.85;48.79;99415.06;4965954;28;124082;-91
2022/07/10 08:05:09;;;;;;;3.33;1.90;;;19.30;79.70;;;19.88;48.51;99413.53;4970693;28;123634;-92
2022/07/10 08:07:36;;;;;;;6.60;2.03;;;19.30;79.80;;;19.93;48.69;99402.06;4967659;28;119620;-91
2022/07/10 08:10:05;;;;;;;2.97;1.73;;;19.40;79.80;;;20.01;48.64;99412.28;4962458;28;118658;-91
2022/07/10 08:12:31;;;;;;;2.53;1.67;;;19.40;79.70;;;20.02;48.16;99408.31;4970878;28;123798;-92
2022/07/10 08:14:58;;;;;;;1.43;1.27;;;19.50;79.00;;;20.01;47.54;99415.09;4967349;28;123855;-91
2022/07/10 08:17:26;;;;;;;2.17;1.77;;;19.40;78.10;;;20.04;47.49;99405.94;4968026;28;119498;-88
2022/07/10 08:19:53;;;;;;;2.83;1.63;;;19.50;78.00;;;20.07;47.62;99400.44;4973360;28;119933;-91
2022/07/10 08:22:19;;;;;;;3.50;1.60;;;19.50;77.90;;;20.13;47.06;99401.00;4977164;28;124230;-92
2022/07/10 08:24:46;;;;;;;8.43;1.77;;;19.60;77.50;;;20.12;47.06;99393.72;4963998;28;122955;-91
2022/07/10 08:27:12;;;;;;;3.00;1.73;;;19.60;77.10;;;20.19;46.99;99402.34;4972087;28;120390;-93
2022/07/10 08:29:39;;;;;;;2.27;1.30;;;19.60;77.20;;;20.26;46.44;99401.72;4968174;28;116902;-89
2022/07/10 08:32:06;;;;;;;3.50;1.30;;;19.70;76.60;;;20.30;46.52;99397.00;4975258;28;124272;-96
2022/07/10 08:34:33;;;;;;;3.07;1.50;;;19.70;76.50;;;20.30;46.26;99392.19;4973030;28;124418;-93
2022/07/10 08:36:59;;;;;;;3.10;1.50;;;19.70;75.90;;;20.29;46.47;99390.56;4978273;28;119160;-92
2022/07/10 08:39:25;;;;;;;2.83;1.70;;;19.70;76.30;;;20.33;46.31;99398.25;4975720;28;118851;-93
2022/07/10 08:41:52;;;;;;;1.97;1.33;;;19.80;76.20;;;20.28;46.34;99388.13;4980013;28;124395;-92
2022/07/10 08:44:19;;;;;;;5.10;1.70;;;19.70;75.80;;;20.22;46.53;99390.38;4983719;28;123855;-92
2022/07/10 08:46:45;;;;;;;2.93;1.67;;;19.70;76.40;;;20.21;46.32;99397.19;4987210;28;118865;-91
2022/07/10 08:49:15;;;;;;;4.80;1.70;;;19.70;75.80;;;20.25;46.00;99381.22;4979527;28;119438;-93
2022/07/10 08:51:57;;;;;;;2.47;1.70;;;19.70;75.20;;;20.29;45.81;99386.97;4972104;28;124579;-94
2022/07/10 08:54:26;;;;;;;3.83;1.80;;;19.70;75.30;;;20.36;45.51;99375.88;4982752;28;123610;-93
2022/07/10 08:56:52;;;;;;;2.70;1.43;;;19.70;75.10;;;20.41;45.42;99381.22;4958821;28;119281;-91
2022/07/10 08:59:20;;;;;;;4.30;1.60;;;19.80;74.80;;;20.46;44.77;99377.31;4981409;28;117038;-95
2022/07/10 09:01:49;;;;;;;2.10;1.77;;;19.90;74.10;;;20.44;44.76;99394.53;4986900;28;124286;-92
2022/07/10 09:04:34;;;;;;;2.67;1.40;;;19.90;73.70;;;20.42;44.97;99387.66;4986168;28;124866;-95
2022/07/10 09:07:01;;;;;;;2.20;1.30;;;19.90;73.40;;;20.45;44.80;99393.38;4980042;28;119496;-92
2022/07/10 09:09:27;;;;;;;2.37;1.57;;;19.90;73.50;;;20.52;44.97;99387.09;4975124;28;119968;-90
2022/07/10 09:11:58;;;;;;;1.57;1.20;;;20.00;73.50;;;20.61;45.05;99390.56;4986204;28;123964;-91
2022/07/10 09:14:27;;;;;;;5.20;1.57;;;20.00;73.50;;;20.63;43.90;99402.25;4977017;28;122925;-94
2022/07/10 09:16:54;;;;;;;2.13;1.30;;;20.00;72.10;;;20.63;43.56;99393.81;4976554;28;119619;-94
2022/07/10 09:19:28;;;;;;;4.57;2.33;;;20.10;71.80;;;20.64;43.65;99391.81;4972059;28;118995;-91
2022/07/10 09:22:04;;;;;;;2.60;1.73;;;20.10;71.50;;;20.63;43.41;99396.63;4977099;28;122427;-94
2022/07/10 09:24:45;;;;;;;3.70;1.60;;;20.10;70.80;;;20.63;42.70;99391.03;4996376;28;123942;-95
2022/07/10 09:27:15;;;;;;;3.40;1.50;;;20.10;69.90;;;20.64;43.61;99401.06;4991510;28;119659;-94
2022/07/10 09:29:59;;;;;;;3.40;1.53;;;20.00;70.60;;;20.75;42.70;99401.31;5007227;28;119643;-94
2022/07/10 09:32:27;;;;;;;2.80;1.30;;;20.10;70.40;;;20.85;43.13;99399.94;4980141;28;124628;-93
2022/07/10 09:37:41;;;;;;;3.23;1.33;;;20.30;69.70;;;20.90;42.37;99394.00;4986032;28;120133;-92
2022/07/10 09:40:09;;;;;;;1.50;1.27;;;20.30;69.80;;;20.92;42.50;99391.66;4972877;28;117675;-93
2022/07/10 09:42:43;;;;;;;3.43;1.80;;;20.30;69.40;;;20.89;41.83;99401.63;4993253;28;123927;-90
2022/07/10 09:45:29;;;;;;;2.47;1.57;;;20.30;68.80;;;20.91;42.29;99392.84;5014013;28;123578;-89
2022/07/10 09:48:03;;;;;;;2.17;1.43;;;20.40;68.50;;;20.97;42.19;99385.75;4981143;28;117524;-90
2022/07/10 09:50:30;;;;;;;6.90;2.00;;;20.40;68.20;;;20.98;41.80;99390.16;4986890;28;119602;-88
2022/07/10 09:52:59;;;;;;;3.03;1.40;;;20.40;68.10;;;21.02;41.60;99393.88;4987660;28;123412;-90
2022/07/10 09:55:31;;;;;;;5.63;1.40;;;20.50;68.40;;;21.02;41.17;99379.84;4996407;28;122865;-94
2022/07/10 09:58:09;;;;;;;1.53;1.20;;;20.50;67.20;;;21.04;41.47;99391.53;4981506;28;120106;-90
2022/07/10 10:00:45;;;;;;;2.23;1.23;;;20.50;67.50;;;21.09;41.29;99399.66;4984731;28;119677;-92
2022/07/10 10:03:15;;;;;;;4.90;1.50;;;20.50;67.50;;;21.13;41.57;99399.72;4980723;28;123762;-92
2022/07/10 10:05:54;;;;;;;3.67;1.90;;;20.60;67.30;;;21.16;40.69;99394.19;4985822;28;122865;-91
2022/07/10 10:09:05;;;;;;;1.50;1.33;;;20.60;66.30;;;21.18;40.76;99391.81;5005119;28;119630;-92
2022/07/10 10:11:35;;;;;;;3.80;1.50;;;20.70;66.30;;;21.21;40.86;99395.88;4983289;28;118482;-92
2022/07/10 10:14:02;;;;;;;5.60;1.37;;;20.70;65.90;;;21.20;40.78;99397.09;4977507;28;123403;-90
2022/07/10 10:16:30;;;;;;;2.70;1.63;;;20.70;65.70;;;21.16;40.79;99393.38;4983892;28;124096;-90
2022/07/10 10:21:45;;;;;;;6.97;1.80;;;20.60;65.30;;;21.08;40.68;99386.78;4988008;28;119016;-92
2022/07/10 10:24:14;;;;;;;1.43;1.23;;;20.60;65.50;;;21.10;40.62;99392.03;4985049;28;124027;-95
2022/07/10 10:26:43;;;;;;;3.67;1.40;;;20.60;65.50;;;21.07;40.64;99379.53;4993732;28;123229;-94
2022/07/10 10:29:10;;;;;;;3.00;1.40;;;20.60;64.80;;;21.05;40.45;99375.47;4990430;28;118573;-92
2022/07/10 10:31:38;;;;;;;1.90;1.40;;;20.60;65.00;;;21.05;40.46;99373.47;4990456;28;119620;-93